パリ/シャルル・ド・ゴール の空港の天気 - METARとTAF

シャルル・ド・ゴール国際空港(パリ) ( LFPG / CDG ) - フランス Paris
飛行場実況気象(Metar)
観測時間04/16 13:00 CEST (04/16 11:00 UTC)
風向・風速北北東 6m/s
視程10km以上
天気現象
少しの雲 雲底高度 150m
全天の4割程度の雲 雲底高度 2010m
気温9℃
湿度43%
気圧1027hPa
METARLFPG 161100Z 03011KT 340V100 9999 FEW005 SCT066 09/M03 Q1027 NOSIG
過去の天気等 Google飛行場航空写真 Wunderground天気予報

過去48時間のMETAR

飛行場予報(TAF)
発表時間: 4/16 07:00 CEST (4/16 05:00 UTC)
予報対象時間: 16日8時 CEST ~ 17日14時 CEST
風向・風速北北東 4m/s
視程10km以上
なし
16日14時 CEST ~ 16日19時 CEST に一時的に
風向・風速北北東 8m/s 瞬間風速 13m/s
TAF LFPG 160500Z 1606/1712 02008KT CAVOK TX12/1712Z TN01/1606Z
TEMPO 1612/1617 02015G25KT